Terminal Aerodrome Forecast
Issued by NWS

Home | Current Version | Previous Version | Graphics & Text | Print | Product List | Glossary On
Versions: 1 2 3 4 5 6 7 8 9 10 11 12 13 14 15 16 17 18
000
FTUS43 KGRB 181136
TAFATW
TAF
KATW 181136Z 1812/1912 01003KT P6SM SCT002 SCT018
      TEMPO 1812/1814 2SM BR BKN002 BKN018
     FM181400 08006KT P6SM BKN022
      TEMPO 1814/1817 BKN022
     FM181700 10006KT P6SM BKN150
     FM190500 08004KT P6SM OVC100
     FM190800 08004KT P6SM BKN090
     FM191100 08004KT P6SM BKN070=

USA.gov is the U.S. government's official web portal to all federal, state and local government web resources and services.